sensor_id;sensor_type;location;lat;lon;timestamp;P1;durP1;ratioP1;P2;durP2;ratioP2
50547;SDS011;38013;48.810;8.818;2023-05-15T00:01:22;3.50;;;2.10;;
50547;SDS011;38013;48.810;8.818;2023-05-15T00:03:49;4.03;;;1.98;;
50547;SDS011;38013;48.810;8.818;2023-05-15T00:06:17;4.15;;;2.25;;
50547;SDS011;38013;48.810;8.818;2023-05-15T00:08:45;3.67;;;2.10;;
50547;SDS011;38013;48.810;8.818;2023-05-15T00:11:11;3.53;;;2.15;;
50547;SDS011;38013;48.810;8.818;2023-05-15T00:13:38;5.68;;;2.28;;
50547;SDS011;38013;48.810;8.818;2023-05-15T00:16:06;3.88;;;1.90;;
50547;SDS011;38013;48.810;8.818;2023-05-15T00:18:33;4.15;;;2.10;;
50547;SDS011;38013;48.810;8.818;2023-05-15T00:21:00;5.47;;;2.25;;
50547;SDS011;38013;48.810;8.818;2023-05-15T00:23:28;6.75;;;2.05;;
50547;SDS011;38013;48.810;8.818;2023-05-15T00:25:54;3.35;;;2.25;;
50547;SDS011;38013;48.810;8.818;2023-05-15T00:28:21;5.03;;;2.42;;
50547;SDS011;38013;48.810;8.818;2023-05-15T00:30:48;5.95;;;2.50;;
50547;SDS011;38013;48.810;8.818;2023-05-15T00:33:15;4.20;;;2.15;;
50547;SDS011;38013;48.810;8.818;2023-05-15T00:35:42;3.58;;;1.98;;
50547;SDS011;38013;48.810;8.818;2023-05-15T00:38:09;4.35;;;2.15;;
50547;SDS011;38013;48.810;8.818;2023-05-15T00:40:37;4.88;;;1.75;;
50547;SDS011;38013;48.810;8.818;2023-05-15T00:43:06;5.35;;;2.30;;
50547;SDS011;38013;48.810;8.818;2023-05-15T00:45:35;5.63;;;2.45;;
50547;SDS011;38013;48.810;8.818;2023-05-15T00:48:06;3.78;;;2.22;;
50547;SDS011;38013;48.810;8.818;2023-05-15T00:50:35;3.73;;;2.20;;
50547;SDS011;38013;48.810;8.818;2023-05-15T00:53:03;4.55;;;2.28;;
50547;SDS011;38013;48.810;8.818;2023-05-15T00:55:32;5.25;;;1.92;;
50547;SDS011;38013;48.810;8.818;2023-05-15T00:57:59;3.38;;;1.92;;
50547;SDS011;38013;48.810;8.818;2023-05-15T01:00:26;4.32;;;1.90;;
50547;SDS011;38013;48.810;8.818;2023-05-15T01:02:56;4.05;;;2.22;;
50547;SDS011;38013;48.810;8.818;2023-05-15T01:05:25;5.13;;;2.40;;
50547;SDS011;38013;48.810;8.818;2023-05-15T01:08:41;8.10;;;1.95;;
50547;SDS011;38013;48.810;8.818;2023-05-15T01:10:51;5.40;;;2.15;;
50547;SDS011;38013;48.810;8.818;2023-05-15T01:13:21;4.10;;;1.95;;
50547;SDS011;38013;48.810;8.818;2023-05-15T01:15:48;3.85;;;2.13;;
50547;SDS011;38013;48.810;8.818;2023-05-15T01:18:16;5.72;;;2.22;;
50547;SDS011;38013;48.810;8.818;2023-05-15T01:32:11;4.75;;;2.28;;
50547;SDS011;38013;48.810;8.818;2023-05-15T01:34:48;4.28;;;2.63;;
50547;SDS011;38013;48.810;8.818;2023-05-15T01:37:51;5.93;;;2.20;;
50547;SDS011;38013;48.810;8.818;2023-05-15T01:40:36;4.70;;;2.20;;
50547;SDS011;38013;48.810;8.818;2023-05-15T01:43:06;7.57;;;2.42;;
50547;SDS011;38013;48.810;8.818;2023-05-15T01:45:37;7.20;;;2.45;;
50547;SDS011;38013;48.810;8.818;2023-05-15T01:50:34;8.55;;;2.50;;
50547;SDS011;38013;48.810;8.818;2023-05-15T01:55:33;4.53;;;2.10;;
50547;SDS011;38013;48.810;8.818;2023-05-15T01:58:00;6.07;;;2.40;;
50547;SDS011;38013;48.810;8.818;2023-05-15T02:00:30;6.20;;;2.37;;
50547;SDS011;38013;48.810;8.818;2023-05-15T02:02:58;3.17;;;1.90;;
50547;SDS011;38013;48.810;8.818;2023-05-15T02:05:26;4.15;;;2.22;;
50547;SDS011;38013;48.810;8.818;2023-05-15T02:07:54;6.80;;;2.15;;
50547;SDS011;38013;48.810;8.818;2023-05-15T02:10:22;4.53;;;2.00;;
50547;SDS011;38013;48.810;8.818;2023-05-15T02:12:51;7.15;;;2.55;;
50547;SDS011;38013;48.810;8.818;2023-05-15T02:15:20;3.78;;;2.05;;
50547;SDS011;38013;48.810;8.818;2023-05-15T02:17:49;4.80;;;2.35;;
50547;SDS011;38013;48.810;8.818;2023-05-15T02:20:16;5.68;;;2.20;;
50547;SDS011;38013;48.810;8.818;2023-05-15T02:22:43;3.67;;;1.95;;
50547;SDS011;38013;48.810;8.818;2023-05-15T02:25:10;4.18;;;1.95;;
50547;SDS011;38013;48.810;8.818;2023-05-15T02:27:55;4.20;;;2.35;;
50547;SDS011;38013;48.810;8.818;2023-05-15T02:33:36;4.47;;;2.10;;
50547;SDS011;38013;48.810;8.818;2023-05-15T02:36:19;2.97;;;1.85;;
50547;SDS011;38013;48.810;8.818;2023-05-15T02:38:52;3.42;;;2.05;;
50547;SDS011;38013;48.810;8.818;2023-05-15T02:41:20;4.13;;;2.17;;
50547;SDS011;38013;48.810;8.818;2023-05-15T02:43:49;3.38;;;2.13;;
50547;SDS011;38013;48.810;8.818;2023-05-15T02:46:17;7.63;;;2.22;;
50547;SDS011;38013;48.810;8.818;2023-05-15T02:48:46;4.75;;;2.10;;
50547;SDS011;38013;48.810;8.818;2023-05-15T02:51:14;3.83;;;2.20;;
50547;SDS011;38013;48.810;8.818;2023-05-15T02:53:41;3.63;;;2.10;;
50547;SDS011;38013;48.810;8.818;2023-05-15T02:56:09;3.97;;;2.17;;
50547;SDS011;38013;48.810;8.818;2023-05-15T02:58:36;4.38;;;2.05;;
50547;SDS011;38013;48.810;8.818;2023-05-15T03:01:04;3.75;;;2.10;;
50547;SDS011;38013;48.810;8.818;2023-05-15T03:03:32;7.18;;;2.42;;
50547;SDS011;38013;48.810;8.818;2023-05-15T03:05:59;3.67;;;2.08;;
50547;SDS011;38013;48.810;8.818;2023-05-15T03:08:28;5.20;;;2.50;;
50547;SDS011;38013;48.810;8.818;2023-05-15T03:10:55;3.15;;;1.92;;
50547;SDS011;38013;48.810;8.818;2023-05-15T03:13:22;4.68;;;2.13;;
50547;SDS011;38013;48.810;8.818;2023-05-15T03:15:50;6.07;;;2.45;;
50547;SDS011;38013;48.810;8.818;2023-05-15T03:18:18;5.15;;;2.50;;
50547;SDS011;38013;48.810;8.818;2023-05-15T03:20:48;6.47;;;2.25;;
50547;SDS011;38013;48.810;8.818;2023-05-15T03:23:17;4.35;;;2.80;;
50547;SDS011;38013;48.810;8.818;2023-05-15T03:25:44;4.30;;;1.92;;
50547;SDS011;38013;48.810;8.818;2023-05-15T03:28:11;4.60;;;2.17;;
50547;SDS011;38013;48.810;8.818;2023-05-15T03:30:38;4.85;;;2.88;;
50547;SDS011;38013;48.810;8.818;2023-05-15T03:33:05;4.25;;;2.60;;
50547;SDS011;38013;48.810;8.818;2023-05-15T03:35:32;4.63;;;2.78;;
50547;SDS011;38013;48.810;8.818;2023-05-15T03:38:00;7.55;;;3.20;;
50547;SDS011;38013;48.810;8.818;2023-05-15T03:40:27;4.15;;;2.78;;
50547;SDS011;38013;48.810;8.818;2023-05-15T03:42:54;4.72;;;3.00;;
50547;SDS011;38013;48.810;8.818;2023-05-15T03:45:21;4.03;;;2.50;;
50547;SDS011;38013;48.810;8.818;2023-05-15T03:47:48;4.38;;;2.95;;
50547;SDS011;38013;48.810;8.818;2023-05-15T03:50:16;5.70;;;2.90;;
50547;SDS011;38013;48.810;8.818;2023-05-15T03:52:43;4.30;;;2.78;;
50547;SDS011;38013;48.810;8.818;2023-05-15T03:55:09;4.75;;;2.70;;
50547;SDS011;38013;48.810;8.818;2023-05-15T03:57:38;4.90;;;3.10;;
50547;SDS011;38013;48.810;8.818;2023-05-15T04:00:06;5.32;;;3.13;;
50547;SDS011;38013;48.810;8.818;2023-05-15T04:02:38;6.00;;;2.80;;
50547;SDS011;38013;48.810;8.818;2023-05-15T04:05:06;4.80;;;3.00;;
50547;SDS011;38013;48.810;8.818;2023-05-15T04:07:36;5.45;;;2.95;;
50547;SDS011;38013;48.810;8.818;2023-05-15T04:10:03;6.07;;;2.83;;
50547;SDS011;38013;48.810;8.818;2023-05-15T04:12:32;4.95;;;2.50;;
50547;SDS011;38013;48.810;8.818;2023-05-15T04:15:19;4.10;;;2.30;;
50547;SDS011;38013;48.810;8.818;2023-05-15T04:17:51;6.47;;;2.80;;
50547;SDS011;38013;48.810;8.818;2023-05-15T04:20:20;4.28;;;2.75;;
50547;SDS011;38013;48.810;8.818;2023-05-15T04:22:49;4.30;;;2.85;;
50547;SDS011;38013;48.810;8.818;2023-05-15T04:25:17;4.03;;;2.70;;
50547;SDS011;38013;48.810;8.818;2023-05-15T04:27:45;4.75;;;2.88;;
50547;SDS011;38013;48.810;8.818;2023-05-15T04:30:12;4.90;;;3.15;;
50547;SDS011;38013;48.810;8.818;2023-05-15T04:32:39;5.20;;;3.05;;
50547;SDS011;38013;48.810;8.818;2023-05-15T04:35:06;4.05;;;2.85;;
50547;SDS011;38013;48.810;8.818;2023-05-15T04:37:36;4.43;;;2.88;;
50547;SDS011;38013;48.810;8.818;2023-05-15T04:40:04;6.65;;;2.88;;
50547;SDS011;38013;48.810;8.818;2023-05-15T04:42:33;4.03;;;2.70;;
50547;SDS011;38013;48.810;8.818;2023-05-15T04:45:03;4.72;;;3.05;;
50547;SDS011;38013;48.810;8.818;2023-05-15T04:47:30;4.15;;;2.78;;
50547;SDS011;38013;48.810;8.818;2023-05-15T04:49:57;5.15;;;3.15;;
50547;SDS011;38013;48.810;8.818;2023-05-15T04:52:24;6.55;;;3.40;;
50547;SDS011;38013;48.810;8.818;2023-05-15T04:54:51;6.47;;;3.40;;
50547;SDS011;38013;48.810;8.818;2023-05-15T04:57:20;5.35;;;3.20;;
50547;SDS011;38013;48.810;8.818;2023-05-15T04:59:47;4.50;;;3.28;;
50547;SDS011;38013;48.810;8.818;2023-05-15T05:02:14;6.13;;;3.42;;
50547;SDS011;38013;48.810;8.818;2023-05-15T05:04:41;4.90;;;3.08;;
50547;SDS011;38013;48.810;8.818;2023-05-15T05:07:10;4.78;;;3.30;;
50547;SDS011;38013;48.810;8.818;2023-05-15T05:09:38;5.45;;;3.40;;
50547;SDS011;38013;48.810;8.818;2023-05-15T05:12:06;6.32;;;3.10;;
50547;SDS011;38013;48.810;8.818;2023-05-15T05:14:33;8.35;;;4.30;;
50547;SDS011;38013;48.810;8.818;2023-05-15T05:17:00;7.72;;;3.22;;
50547;SDS011;38013;48.810;8.818;2023-05-15T05:19:27;5.40;;;3.72;;
50547;SDS011;38013;48.810;8.818;2023-05-15T05:21:54;5.68;;;3.67;;
50547;SDS011;38013;48.810;8.818;2023-05-15T05:24:23;5.97;;;3.92;;
50547;SDS011;38013;48.810;8.818;2023-05-15T05:26:50;5.28;;;3.42;;
50547;SDS011;38013;48.810;8.818;2023-05-15T05:29:17;6.13;;;4.22;;
50547;SDS011;38013;48.810;8.818;2023-05-15T05:31:45;4.95;;;3.50;;
50547;SDS011;38013;48.810;8.818;2023-05-15T05:34:12;6.47;;;4.05;;
50547;SDS011;38013;48.810;8.818;2023-05-15T05:36:39;5.60;;;3.88;;
50547;SDS011;38013;48.810;8.818;2023-05-15T05:39:06;9.27;;;3.80;;
50547;SDS011;38013;48.810;8.818;2023-05-15T05:41:33;5.50;;;3.70;;
50547;SDS011;38013;48.810;8.818;2023-05-15T05:44:00;6.07;;;3.30;;
50547;SDS011;38013;48.810;8.818;2023-05-15T05:46:27;4.93;;;3.47;;
50547;SDS011;38013;48.810;8.818;2023-05-15T05:48:54;7.03;;;3.78;;
50547;SDS011;38013;48.810;8.818;2023-05-15T05:51:21;6.22;;;4.13;;
50547;SDS011;38013;48.810;8.818;2023-05-15T05:53:48;5.82;;;3.40;;
50547;SDS011;38013;48.810;8.818;2023-05-15T05:56:15;4.93;;;3.17;;
50547;SDS011;38013;48.810;8.818;2023-05-15T05:58:42;7.05;;;3.28;;
50547;SDS011;38013;48.810;8.818;2023-05-15T06:01:09;4.85;;;3.15;;
50547;SDS011;38013;48.810;8.818;2023-05-15T06:03:37;5.25;;;3.15;;
50547;SDS011;38013;48.810;8.818;2023-05-15T06:06:05;6.72;;;3.20;;
50547;SDS011;38013;48.810;8.818;2023-05-15T06:08:33;5.03;;;3.20;;
50547;SDS011;38013;48.810;8.818;2023-05-15T06:11:00;5.65;;;3.08;;
50547;SDS011;38013;48.810;8.818;2023-05-15T06:13:28;6.35;;;2.90;;
50547;SDS011;38013;48.810;8.818;2023-05-15T06:15:55;7.35;;;3.10;;
50547;SDS011;38013;48.810;8.818;2023-05-15T06:18:23;4.45;;;2.90;;
50547;SDS011;38013;48.810;8.818;2023-05-15T06:20:49;4.57;;;2.83;;
50547;SDS011;38013;48.810;8.818;2023-05-15T06:23:16;6.22;;;2.95;;
50547;SDS011;38013;48.810;8.818;2023-05-15T06:25:43;4.55;;;2.80;;
50547;SDS011;38013;48.810;8.818;2023-05-15T06:28:11;5.45;;;2.80;;
50547;SDS011;38013;48.810;8.818;2023-05-15T06:30:38;4.55;;;3.15;;
50547;SDS011;38013;48.810;8.818;2023-05-15T06:33:06;5.93;;;2.80;;
50547;SDS011;38013;48.810;8.818;2023-05-15T06:35:33;4.45;;;3.05;;
50547;SDS011;38013;48.810;8.818;2023-05-15T06:38:00;3.88;;;2.42;;
50547;SDS011;38013;48.810;8.818;2023-05-15T06:40:27;4.78;;;2.80;;
50547;SDS011;38013;48.810;8.818;2023-05-15T06:42:54;4.07;;;2.40;;
50547;SDS011;38013;48.810;8.818;2023-05-15T06:45:21;4.10;;;2.60;;
50547;SDS011;38013;48.810;8.818;2023-05-15T06:47:48;6.25;;;3.05;;
50547;SDS011;38013;48.810;8.818;2023-05-15T06:50:15;4.57;;;2.45;;
50547;SDS011;38013;48.810;8.818;2023-05-15T06:52:42;6.68;;;2.40;;
50547;SDS011;38013;48.810;8.818;2023-05-15T06:55:09;8.02;;;2.47;;
50547;SDS011;38013;48.810;8.818;2023-05-15T06:57:36;5.70;;;2.70;;
50547;SDS011;38013;48.810;8.818;2023-05-15T07:00:03;6.30;;;2.78;;
50547;SDS011;38013;48.810;8.818;2023-05-15T07:02:31;4.75;;;2.45;;
50547;SDS011;38013;48.810;8.818;2023-05-15T07:04:58;5.43;;;2.50;;
50547;SDS011;38013;48.810;8.818;2023-05-15T07:07:25;3.83;;;2.45;;
50547;SDS011;38013;48.810;8.818;2023-05-15T07:09:52;7.35;;;2.78;;
50547;SDS011;38013;48.810;8.818;2023-05-15T07:12:19;5.78;;;2.60;;
50547;SDS011;38013;48.810;8.818;2023-05-15T07:14:46;5.53;;;2.67;;
50547;SDS011;38013;48.810;8.818;2023-05-15T07:17:13;6.35;;;2.72;;
50547;SDS011;38013;48.810;8.818;2023-05-15T07:19:40;4.15;;;2.55;;
50547;SDS011;38013;48.810;8.818;2023-05-15T07:22:06;3.95;;;2.33;;
50547;SDS011;38013;48.810;8.818;2023-05-15T07:24:33;8.38;;;2.70;;
50547;SDS011;38013;48.810;8.818;2023-05-15T07:27:03;4.30;;;2.38;;
50547;SDS011;38013;48.810;8.818;2023-05-15T07:29:30;4.25;;;2.58;;
50547;SDS011;38013;48.810;8.818;2023-05-15T07:31:57;4.13;;;2.25;;
50547;SDS011;38013;48.810;8.818;2023-05-15T07:34:24;4.55;;;2.60;;
50547;SDS011;38013;48.810;8.818;2023-05-15T07:36:51;4.40;;;2.60;;
50547;SDS011;38013;48.810;8.818;2023-05-15T07:39:18;5.45;;;2.47;;
50547;SDS011;38013;48.810;8.818;2023-05-15T07:41:45;4.82;;;2.67;;
50547;SDS011;38013;48.810;8.818;2023-05-15T07:44:12;4.30;;;2.80;;
50547;SDS011;38013;48.810;8.818;2023-05-15T07:46:39;4.57;;;2.40;;
50547;SDS011;38013;48.810;8.818;2023-05-15T07:49:06;4.57;;;3.10;;
50547;SDS011;38013;48.810;8.818;2023-05-15T07:51:33;6.72;;;2.20;;
50547;SDS011;38013;48.810;8.818;2023-05-15T07:54:00;3.63;;;1.98;;
50547;SDS011;38013;48.810;8.818;2023-05-15T07:56:29;7.70;;;2.45;;
50547;SDS011;38013;48.810;8.818;2023-05-15T07:58:56;6.40;;;2.42;;
50547;SDS011;38013;48.810;8.818;2023-05-15T08:01:23;4.45;;;2.28;;
50547;SDS011;38013;48.810;8.818;2023-05-15T08:03:49;7.90;;;2.40;;
50547;SDS011;38013;48.810;8.818;2023-05-15T08:06:17;4.78;;;2.25;;
50547;SDS011;38013;48.810;8.818;2023-05-15T08:08:43;5.75;;;2.90;;
50547;SDS011;38013;48.810;8.818;2023-05-15T08:11:10;3.97;;;2.38;;
50547;SDS011;38013;48.810;8.818;2023-05-15T08:13:37;5.05;;;2.40;;
50547;SDS011;38013;48.810;8.818;2023-05-15T08:16:04;3.50;;;1.88;;
50547;SDS011;38013;48.810;8.818;2023-05-15T08:18:31;6.43;;;2.72;;
50547;SDS011;38013;48.810;8.818;2023-05-15T08:20:58;4.75;;;2.17;;
50547;SDS011;38013;48.810;8.818;2023-05-15T08:23:27;4.65;;;2.20;;
50547;SDS011;38013;48.810;8.818;2023-05-15T08:25:54;3.40;;;2.10;;
50547;SDS011;38013;48.810;8.818;2023-05-15T08:28:20;4.65;;;2.33;;
50547;SDS011;38013;48.810;8.818;2023-05-15T08:30:47;6.07;;;2.45;;
50547;SDS011;38013;48.810;8.818;2023-05-15T08:33:14;4.28;;;2.28;;
50547;SDS011;38013;48.810;8.818;2023-05-15T08:35:41;6.63;;;2.15;;
50547;SDS011;38013;48.810;8.818;2023-05-15T08:38:08;5.60;;;1.90;;
50547;SDS011;38013;48.810;8.818;2023-05-15T08:40:35;3.17;;;1.80;;
50547;SDS011;38013;48.810;8.818;2023-05-15T08:43:09;4.82;;;2.30;;
50547;SDS011;38013;48.810;8.818;2023-05-15T08:45:41;3.60;;;2.05;;
50547;SDS011;38013;48.810;8.818;2023-05-15T08:48:15;3.63;;;2.00;;
50547;SDS011;38013;48.810;8.818;2023-05-15T08:50:46;5.40;;;2.08;;
50547;SDS011;38013;48.810;8.818;2023-05-15T08:53:14;4.32;;;1.83;;
50547;SDS011;38013;48.810;8.818;2023-05-15T08:55:42;3.80;;;2.10;;
50547;SDS011;38013;48.810;8.818;2023-05-15T08:58:09;3.47;;;2.10;;
50547;SDS011;38013;48.810;8.818;2023-05-15T09:00:36;4.55;;;2.00;;
50547;SDS011;38013;48.810;8.818;2023-05-15T09:03:04;6.70;;;1.88;;
50547;SDS011;38013;48.810;8.818;2023-05-15T09:05:31;3.72;;;2.00;;
50547;SDS011;38013;48.810;8.818;2023-05-15T09:07:58;3.45;;;2.03;;
50547;SDS011;38013;48.810;8.818;2023-05-15T09:10:31;4.03;;;2.20;;
50547;SDS011;38013;48.810;8.818;2023-05-15T09:12:59;4.40;;;2.20;;
50547;SDS011;38013;48.810;8.818;2023-05-15T09:15:27;3.92;;;1.75;;
50547;SDS011;38013;48.810;8.818;2023-05-15T09:17:55;3.88;;;2.08;;
50547;SDS011;38013;48.810;8.818;2023-05-15T09:20:30;4.57;;;2.47;;
50547;SDS011;38013;48.810;8.818;2023-05-15T09:23:01;3.35;;;1.75;;
50547;SDS011;38013;48.810;8.818;2023-05-15T09:28:22;6.75;;;1.90;;
50547;SDS011;38013;48.810;8.818;2023-05-15T09:30:58;3.78;;;1.80;;
50547;SDS011;38013;48.810;8.818;2023-05-15T09:36:07;3.35;;;1.80;;
50547;SDS011;38013;48.810;8.818;2023-05-15T09:38:39;4.50;;;2.10;;
50547;SDS011;38013;48.810;8.818;2023-05-15T09:41:08;3.35;;;1.70;;
50547;SDS011;38013;48.810;8.818;2023-05-15T09:43:38;3.83;;;1.90;;
50547;SDS011;38013;48.810;8.818;2023-05-15T09:46:06;3.97;;;1.83;;
50547;SDS011;38013;48.810;8.818;2023-05-15T09:48:34;7.95;;;1.90;;
50547;SDS011;38013;48.810;8.818;2023-05-15T09:51:01;4.90;;;1.98;;
50547;SDS011;38013;48.810;8.818;2023-05-15T09:53:30;5.05;;;2.03;;
50547;SDS011;38013;48.810;8.818;2023-05-15T09:55:58;3.47;;;1.98;;
50547;SDS011;38013;48.810;8.818;2023-05-15T09:58:24;6.10;;;1.77;;
50547;SDS011;38013;48.810;8.818;2023-05-15T10:00:51;3.13;;;1.80;;
50547;SDS011;38013;48.810;8.818;2023-05-15T10:03:18;3.78;;;2.00;;
50547;SDS011;38013;48.810;8.818;2023-05-15T10:05:45;7.88;;;2.00;;
50547;SDS011;38013;48.810;8.818;2023-05-15T10:08:12;3.95;;;1.80;;
50547;SDS011;38013;48.810;8.818;2023-05-15T10:10:42;3.65;;;1.67;;
50547;SDS011;38013;48.810;8.818;2023-05-15T10:13:11;3.25;;;1.80;;
50547;SDS011;38013;48.810;8.818;2023-05-15T10:15:38;4.75;;;1.80;;
50547;SDS011;38013;48.810;8.818;2023-05-15T10:18:06;3.60;;;2.00;;
50547;SDS011;38013;48.810;8.818;2023-05-15T10:20:34;4.20;;;2.00;;
50547;SDS011;38013;48.810;8.818;2023-05-15T10:23:02;7.40;;;1.95;;
50547;SDS011;38013;48.810;8.818;2023-05-15T10:28:08;2.92;;;1.35;;
50547;SDS011;38013;48.810;8.818;2023-05-15T10:30:37;2.80;;;1.60;;
50547;SDS011;38013;48.810;8.818;2023-05-15T10:33:04;4.38;;;1.63;;
50547;SDS011;38013;48.810;8.818;2023-05-15T10:35:33;7.70;;;1.77;;
50547;SDS011;38013;48.810;8.818;2023-05-15T10:38:02;3.40;;;1.50;;
50547;SDS011;38013;48.810;8.818;2023-05-15T10:40:31;3.78;;;1.80;;
50547;SDS011;38013;48.810;8.818;2023-05-15T10:42:59;2.85;;;1.55;;
50547;SDS011;38013;48.810;8.818;2023-05-15T10:47:56;2.97;;;1.50;;
50547;SDS011;38013;48.810;8.818;2023-05-15T10:50:25;4.00;;;1.30;;
50547;SDS011;38013;48.810;8.818;2023-05-15T10:52:52;5.65;;;1.70;;
50547;SDS011;38013;48.810;8.818;2023-05-15T10:55:21;3.40;;;1.52;;
50547;SDS011;38013;48.810;8.818;2023-05-15T10:57:48;2.90;;;1.50;;
50547;SDS011;38013;48.810;8.818;2023-05-15T11:00:25;4.28;;;1.58;;
50547;SDS011;38013;48.810;8.818;2023-05-15T11:02:54;2.45;;;1.15;;
50547;SDS011;38013;48.810;8.818;2023-05-15T11:05:24;2.30;;;1.40;;
50547;SDS011;38013;48.810;8.818;2023-05-15T11:10:40;5.72;;;1.40;;
50547;SDS011;38013;48.810;8.818;2023-05-15T11:13:07;2.20;;;1.10;;
50547;SDS011;38013;48.810;8.818;2023-05-15T11:15:41;3.85;;;1.30;;
50547;SDS011;38013;48.810;8.818;2023-05-15T11:18:09;5.90;;;1.77;;
50547;SDS011;38013;48.810;8.818;2023-05-15T11:23:20;3.95;;;1.50;;
50547;SDS011;38013;48.810;8.818;2023-05-15T11:25:52;2.17;;;1.30;;
50547;SDS011;38013;48.810;8.818;2023-05-15T11:28:22;5.50;;;1.50;;
50547;SDS011;38013;48.810;8.818;2023-05-15T11:30:51;7.78;;;1.42;;
50547;SDS011;38013;48.810;8.818;2023-05-15T11:33:19;6.22;;;1.60;;
50547;SDS011;38013;48.810;8.818;2023-05-15T11:35:46;2.55;;;1.35;;
50547;SDS011;38013;48.810;8.818;2023-05-15T11:38:17;3.25;;;1.38;;
50547;SDS011;38013;48.810;8.818;2023-05-15T11:43:29;2.33;;;1.40;;
50547;SDS011;38013;48.810;8.818;2023-05-15T11:46:07;3.88;;;1.20;;
50547;SDS011;38013;48.810;8.818;2023-05-15T11:48:39;2.72;;;1.33;;
50547;SDS011;38013;48.810;8.818;2023-05-15T11:51:14;2.83;;;1.55;;
50547;SDS011;38013;48.810;8.818;2023-05-15T11:53:50;2.15;;;1.40;;
50547;SDS011;38013;48.810;8.818;2023-05-15T11:56:21;5.32;;;1.50;;
50547;SDS011;38013;48.810;8.818;2023-05-15T11:58:59;3.50;;;1.30;;
50547;SDS011;38013;48.810;8.818;2023-05-15T12:01:27;3.17;;;1.30;;
50547;SDS011;38013;48.810;8.818;2023-05-15T12:04:12;2.05;;;1.05;;
50547;SDS011;38013;48.810;8.818;2023-05-15T12:06:40;2.40;;;1.17;;
50547;SDS011;38013;48.810;8.818;2023-05-15T12:09:13;4.65;;;1.27;;
50547;SDS011;38013;48.810;8.818;2023-05-15T12:11:49;3.33;;;1.25;;
50547;SDS011;38013;48.810;8.818;2023-05-15T12:14:24;3.00;;;1.40;;
50547;SDS011;38013;48.810;8.818;2023-05-15T12:16:59;2.25;;;1.30;;
50547;SDS011;38013;48.810;8.818;2023-05-15T12:19:29;2.10;;;1.10;;
50547;SDS011;38013;48.810;8.818;2023-05-15T12:21:58;3.42;;;1.42;;
50547;SDS011;38013;48.810;8.818;2023-05-15T12:24:25;3.63;;;2.13;;
50547;SDS011;38013;48.810;8.818;2023-05-15T12:26:52;6.32;;;1.60;;
50547;SDS011;38013;48.810;8.818;2023-05-15T12:29:22;3.50;;;1.40;;
50547;SDS011;38013;48.810;8.818;2023-05-15T12:31:51;7.00;;;1.85;;
50547;SDS011;38013;48.810;8.818;2023-05-15T12:34:19;5.05;;;1.75;;
50547;SDS011;38013;48.810;8.818;2023-05-15T12:36:46;4.47;;;1.70;;
50547;SDS011;38013;48.810;8.818;2023-05-15T12:39:13;5.82;;;1.63;;
50547;SDS011;38013;48.810;8.818;2023-05-15T12:41:40;6.05;;;1.77;;
50547;SDS011;38013;48.810;8.818;2023-05-15T12:44:14;2.20;;;1.40;;
50547;SDS011;38013;48.810;8.818;2023-05-15T12:46:42;3.65;;;1.48;;
50547;SDS011;38013;48.810;8.818;2023-05-15T12:49:09;7.72;;;1.95;;
50547;SDS011;38013;48.810;8.818;2023-05-15T12:51:43;3.15;;;1.80;;
50547;SDS011;38013;48.810;8.818;2023-05-15T12:54:17;6.35;;;1.92;;
50547;SDS011;38013;48.810;8.818;2023-05-15T12:56:46;15.73;;;2.15;;
50547;SDS011;38013;48.810;8.818;2023-05-15T12:59:13;5.22;;;2.03;;
50547;SDS011;38013;48.810;8.818;2023-05-15T13:01:40;9.52;;;1.83;;
50547;SDS011;38013;48.810;8.818;2023-05-15T13:04:08;7.80;;;2.35;;
50547;SDS011;38013;48.810;8.818;2023-05-15T13:06:37;2.80;;;1.73;;
50547;SDS011;38013;48.810;8.818;2023-05-15T13:09:12;7.18;;;1.70;;
50547;SDS011;38013;48.810;8.818;2023-05-15T13:11:42;4.78;;;1.70;;
50547;SDS011;38013;48.810;8.818;2023-05-15T13:14:10;2.70;;;1.60;;
50547;SDS011;38013;48.810;8.818;2023-05-15T13:16:44;6.03;;;1.85;;
50547;SDS011;38013;48.810;8.818;2023-05-15T13:19:12;3.72;;;1.50;;
50547;SDS011;38013;48.810;8.818;2023-05-15T13:21:39;3.25;;;1.83;;
50547;SDS011;38013;48.810;8.818;2023-05-15T13:24:06;5.07;;;1.80;;
50547;SDS011;38013;48.810;8.818;2023-05-15T13:26:35;4.03;;;1.80;;
50547;SDS011;38013;48.810;8.818;2023-05-15T13:29:02;2.72;;;1.45;;
50547;SDS011;38013;48.810;8.818;2023-05-15T13:31:29;3.50;;;1.80;;
50547;SDS011;38013;48.810;8.818;2023-05-15T13:33:56;3.08;;;1.80;;
50547;SDS011;38013;48.810;8.818;2023-05-15T13:36:23;3.17;;;1.67;;
50547;SDS011;38013;48.810;8.818;2023-05-15T13:38:49;3.10;;;1.90;;
50547;SDS011;38013;48.810;8.818;2023-05-15T13:41:16;3.88;;;1.83;;
50547;SDS011;38013;48.810;8.818;2023-05-15T13:43:43;2.60;;;1.40;;
50547;SDS011;38013;48.810;8.818;2023-05-15T13:46:12;4.05;;;1.40;;
50547;SDS011;38013;48.810;8.818;2023-05-15T13:48:40;2.33;;;1.40;;
50547;SDS011;38013;48.810;8.818;2023-05-15T13:51:06;4.13;;;1.50;;
50547;SDS011;38013;48.810;8.818;2023-05-15T13:53:33;2.90;;;1.50;;
50547;SDS011;38013;48.810;8.818;2023-05-15T13:56:01;5.78;;;1.25;;
50547;SDS011;38013;48.810;8.818;2023-05-15T13:58:28;2.75;;;1.23;;
50547;SDS011;38013;48.810;8.818;2023-05-15T14:00:55;4.70;;;1.30;;
50547;SDS011;38013;48.810;8.818;2023-05-15T14:03:22;2.10;;;1.15;;
50547;SDS011;38013;48.810;8.818;2023-05-15T14:05:49;3.58;;;1.40;;
50547;SDS011;38013;48.810;8.818;2023-05-15T14:08:17;2.40;;;1.40;;
50547;SDS011;38013;48.810;8.818;2023-05-15T14:10:44;4.60;;;1.50;;
50547;SDS011;38013;48.810;8.818;2023-05-15T14:13:10;3.03;;;1.38;;
50547;SDS011;38013;48.810;8.818;2023-05-15T14:15:37;3.60;;;1.40;;
50547;SDS011;38013;48.810;8.818;2023-05-15T14:18:04;5.40;;;1.52;;
50547;SDS011;38013;48.810;8.818;2023-05-15T14:20:31;3.05;;;1.50;;
50547;SDS011;38013;48.810;8.818;2023-05-15T14:22:58;3.33;;;1.45;;
50547;SDS011;38013;48.810;8.818;2023-05-15T14:25:25;5.03;;;1.40;;
50547;SDS011;38013;48.810;8.818;2023-05-15T14:27:52;4.88;;;1.40;;
50547;SDS011;38013;48.810;8.818;2023-05-15T14:30:20;4.03;;;1.70;;
50547;SDS011;38013;48.810;8.818;2023-05-15T14:32:47;5.88;;;1.67;;
50547;SDS011;38013;48.810;8.818;2023-05-15T14:35:14;2.63;;;1.63;;
50547;SDS011;38013;48.810;8.818;2023-05-15T14:37:41;4.32;;;1.90;;
50547;SDS011;38013;48.810;8.818;2023-05-15T14:40:08;3.00;;;1.80;;
50547;SDS011;38013;48.810;8.818;2023-05-15T14:42:36;2.83;;;1.70;;
50547;SDS011;38013;48.810;8.818;2023-05-15T14:45:03;8.75;;;2.22;;
50547;SDS011;38013;48.810;8.818;2023-05-15T14:47:30;6.15;;;2.20;;
50547;SDS011;38013;48.810;8.818;2023-05-15T14:49:57;4.63;;;2.80;;
50547;SDS011;38013;48.810;8.818;2023-05-15T14:52:24;4.97;;;2.75;;
50547;SDS011;38013;48.810;8.818;2023-05-15T14:54:51;4.20;;;2.70;;
50547;SDS011;38013;48.810;8.818;2023-05-15T14:57:34;4.95;;;2.70;;
50547;SDS011;38013;48.810;8.818;2023-05-15T15:00:01;5.43;;;2.83;;
50547;SDS011;38013;48.810;8.818;2023-05-15T15:02:29;5.60;;;3.35;;
50547;SDS011;38013;48.810;8.818;2023-05-15T15:04:56;5.03;;;2.92;;
50547;SDS011;38013;48.810;8.818;2023-05-15T15:07:27;5.30;;;3.50;;
50547;SDS011;38013;48.810;8.818;2023-05-15T15:09:55;5.63;;;2.78;;
50547;SDS011;38013;48.810;8.818;2023-05-15T15:12:22;4.25;;;2.38;;
50547;SDS011;38013;48.810;8.818;2023-05-15T15:14:50;6.40;;;2.65;;
50547;SDS011;38013;48.810;8.818;2023-05-15T15:17:16;6.18;;;3.20;;
50547;SDS011;38013;48.810;8.818;2023-05-15T15:19:43;7.30;;;3.95;;
50547;SDS011;38013;48.810;8.818;2023-05-15T15:22:10;6.47;;;3.78;;
50547;SDS011;38013;48.810;8.818;2023-05-15T15:24:37;10.25;;;3.30;;
50547;SDS011;38013;48.810;8.818;2023-05-15T15:27:04;8.25;;;3.30;;
50547;SDS011;38013;48.810;8.818;2023-05-15T15:29:32;5.47;;;3.10;;
50547;SDS011;38013;48.810;8.818;2023-05-15T15:31:58;7.97;;;3.65;;
50547;SDS011;38013;48.810;8.818;2023-05-15T15:34:26;5.68;;;3.30;;